Terminal Aerodrome Forecast
Issued by NWS

Home | Current Version | Previous Version | Text Only | Print | Product List | Glossary On
Versions: 1 2 3 4 5 6 7 8 9 10 11 12 13 14 15 16 17 18 19 20
000
FTUS46 KSEW 221747
TAFPAE
TAF
KPAE 221747Z 2218/2318 17011KT P6SM VCSH BKN015 OVC025
     FM222000 19011KT P6SM VCSH SCT020 BKN030
     FM230300 17006KT P6SM SCT015 BKN025 OVC050
     FM230700 15008KT P6SM SCT030 BKN150
     FM231100 14008KT P6SM SCT050 OVC090
     FM231600 15011G19KT P6SM -RA SCT030 OVC040=

USA.gov is the U.S. government's official web portal to all federal, state and local government web resources and services.